createdAt,value
2019-04-26T00:02:12.280Z,95447.96
2019-04-26T00:04:55.191Z,95470.09
2019-04-26T00:07:44.913Z,95464.14
2019-04-26T00:19:55.330Z,95481.55
2019-04-26T00:22:45.301Z,95478.63
2019-04-26T00:25:27.523Z,95458.51
2019-04-26T00:28:17.247Z,95482.56
2019-04-26T00:30:59.900Z,95480.41
2019-04-26T00:33:49.625Z,95481.25
2019-04-26T00:36:32.201Z,95468.37
2019-04-26T00:39:24.155Z,95460.78
2019-04-26T00:42:05.837Z,95460.72
2019-04-26T00:45:16.772Z,95480.98
2019-04-26T00:47:59.795Z,95488.98
2019-04-26T00:50:49.550Z,95475.25
2019-04-26T00:53:59.800Z,95484.55
2019-04-26T00:56:49.792Z,95507.89
2019-04-26T00:59:31.862Z,95516.47
2019-04-26T01:02:40.383Z,95517.05
2019-04-26T01:05:25.247Z,95512.97
2019-04-26T01:08:07.362Z,95520.74
2019-04-26T01:10:57.138Z,95511.95
2019-04-26T01:13:46.846Z,95520.66
2019-04-26T01:16:29.874Z,95522.59
2019-04-26T01:19:20.317Z,95507.67
2019-04-26T01:22:05.602Z,95497.95
2019-04-26T01:28:11.768Z,95487.53
2019-04-26T01:31:34.079Z,95505.22
2019-04-26T01:34:18.970Z,95485.80
2019-04-26T01:37:09.076Z,95510.45
2019-04-26T01:46:22.082Z,95524.25
2019-04-26T01:49:33.320Z,95524.09
2019-04-26T01:52:15.559Z,95514.16
2019-04-26T01:58:21.984Z,95515.92
2019-04-26T02:01:31.641Z,95532.66
2019-04-26T02:07:37.099Z,95527.18
2019-04-26T02:10:27.033Z,95533.37
2019-04-26T02:13:10.909Z,95543.09
2019-04-26T02:16:00.629Z,95542.47
2019-04-26T02:18:43.453Z,95541.31
2019-04-26T02:21:52.970Z,95535.13
2019-04-26T02:24:45.158Z,95543.46
2019-04-26T02:27:41.541Z,95541.31
2019-04-26T02:30:33.290Z,95548.16
2019-04-26T02:33:15.321Z,95544.28
2019-04-26T02:36:05.100Z,95548.36
2019-04-26T02:42:34.953Z,95556.58
2019-04-26T02:46:02.755Z,95550.77
2019-04-26T02:49:08.626Z,95567.83
2019-04-26T02:55:18.306Z,95567.64
2019-04-26T02:58:08.098Z,95575.19
2019-04-26T03:01:18.418Z,95568.55
2019-04-26T03:04:08.174Z,95571.28
2019-04-26T03:10:12.137Z,95564.27
2019-04-26T03:16:37.390Z,95559.41
2019-04-26T03:20:06.917Z,95552.23
2019-04-26T03:26:06.364Z,95539.45
2019-04-26T03:29:35.555Z,95563.93
2019-04-26T03:33:10.953Z,95548.02
2019-04-26T03:36:17.113Z,95570.35
2019-04-26T03:43:07.865Z,95568.23
2019-04-26T03:46:08.843Z,95576.61
2019-04-26T03:49:38.002Z,95579.71
2019-04-26T03:52:41.528Z,95559.73
2019-04-26T03:56:09.253Z,95598.93
2019-04-26T04:08:32.692Z,95619.33
2019-04-26T04:14:46.732Z,95619.32
2019-04-26T04:17:58.747Z,95606.33
2019-04-26T04:21:25.285Z,95638.53
2019-04-26T04:27:45.763Z,95656.94
2019-04-26T04:30:33.066Z,95659.25
2019-04-26T04:36:46.221Z,95667.74
2019-04-26T04:40:20.387Z,95676.42
2019-04-26T04:53:25.543Z,95685.23
2019-04-26T04:56:30.915Z,95692.80
2019-04-26T05:00:01.340Z,95687.31
2019-04-26T05:03:07.666Z,95697.57
2019-04-26T05:09:17.630Z,95694.62
2019-04-26T05:12:41.929Z,95693.43
2019-04-26T05:15:48.480Z,95685.69
2019-04-26T05:19:35.187Z,95710.84
2019-04-26T05:23:03.084Z,95712.69
2019-04-26T05:26:25.813Z,95719.64
2019-04-26T05:39:18.649Z,95746.20
2019-04-26T05:52:18.983Z,95777.20
2019-04-26T06:08:47.825Z,95788.45
2019-04-26T06:18:17.579Z,95814.07
2019-04-26T06:21:23.693Z,95817.13
2019-04-26T06:24:26.325Z,95824.57
2019-04-26T06:27:56.467Z,95811.72
2019-04-26T06:31:10.502Z,95817.73
2019-04-26T06:34:12.163Z,95824.45
2019-04-26T06:37:45.039Z,95833.84
2019-04-26T06:40:48.033Z,95835.19
2019-04-26T06:44:17.498Z,95831.41
2019-04-26T06:47:21.080Z,95829.52
2019-04-26T06:53:33.133Z,95828.97
2019-04-26T06:57:09.626Z,95829.13
2019-04-26T07:00:06.569Z,95827.89
2019-04-26T07:03:34.563Z,95832.31
2019-04-26T07:06:16.966Z,95825.64
2019-04-26T07:15:50.728Z,95823.17
2019-04-26T07:19:18.622Z,95852.34
2019-04-26T07:22:35.137Z,95856.23
2019-04-26T07:25:56.340Z,95862.17
2019-04-26T07:29:01.427Z,95857.61
2019-04-26T07:35:14.710Z,95888.01
2019-04-26T07:41:51.330Z,95879.01
2019-04-26T07:45:13.094Z,95912.67
2019-04-26T07:48:40.966Z,95903.62
2019-04-26T07:52:08.894Z,95916.68
2019-04-26T07:55:10.871Z,95913.73
2019-04-26T07:58:13.172Z,95920.58
2019-04-26T08:08:30.472Z,95906.39
2019-04-26T08:11:16.964Z,95934.66
2019-04-26T08:14:46.458Z,95941.68
2019-04-26T08:17:51.403Z,95927.41
2019-04-26T08:20:56.116Z,95941.59
2019-04-26T08:27:13.927Z,95949.62
2019-04-26T08:29:47.258Z,95944.54
2019-04-26T08:35:53.370Z,95947.69
2019-04-26T08:42:01.718Z,95956.68
2019-04-26T08:48:27.920Z,95955.78
2019-04-26T08:51:39.018Z,95959.23
2019-04-26T08:55:08.375Z,95964.44
2019-04-26T08:57:51.077Z,95974.03
2019-04-26T09:04:33.725Z,95987.82
2019-04-26T09:07:18.678Z,95987.61
2019-04-26T09:13:24.590Z,95962.73
2019-04-26T09:19:32.185Z,95960.27
2019-04-26T09:25:39.340Z,95963.41
2019-04-26T09:28:49.003Z,95979.88
2019-04-26T09:31:40.170Z,95979.88
2019-04-26T09:34:30.261Z,95984.12
2019-04-26T09:37:12.795Z,95989.02
2019-04-26T09:43:30.386Z,96010.60
2019-04-26T09:46:38.932Z,96010.48
2019-04-26T09:49:41.205Z,96011.95
2019-04-26T09:55:19.849Z,96030.58
2019-04-26T09:58:09.649Z,96036.84
2019-04-26T10:00:52.855Z,96045.72
2019-04-26T10:03:42.562Z,96041.52
2019-04-26T10:06:26.171Z,96041.56
2019-04-26T10:12:43.534Z,96031.60
2019-04-26T10:15:52.036Z,96022.84
2019-04-26T10:18:35.726Z,96015.15
2019-04-26T10:21:25.505Z,96020.13
2019-04-26T10:24:08.440Z,96004.06
2019-04-26T10:26:59.298Z,96001.77
2019-04-26T10:29:44.205Z,96018.27
2019-04-26T10:32:33.932Z,96029.30
2019-04-26T10:35:21.661Z,96017.03
2019-04-26T10:38:09.871Z,96013.98
2019-04-26T10:40:52.410Z,96036.41
2019-04-26T10:43:42.158Z,96031.58
2019-04-26T10:46:24.513Z,96014.23
2019-04-26T10:49:54.462Z,96038.85
2019-04-26T10:56:09.692Z,96037.49
2019-04-26T10:59:06.005Z,96024.13
2019-04-26T11:01:48.676Z,96015.67
2019-04-26T11:04:41.342Z,96020.12
2019-04-26T11:07:23.134Z,96017.91
2019-04-26T11:10:24.605Z,96025.96
2019-04-26T11:13:07.475Z,96024.16
2019-04-26T11:15:57.373Z,96017.76
2019-04-26T11:18:47.161Z,96019.85
2019-04-26T11:21:36.870Z,96036.66
2019-04-26T11:24:26.564Z,96035.19
2019-04-26T11:27:16.274Z,96045.80
2019-04-26T11:30:00.059Z,96051.13
2019-04-26T11:32:49.797Z,96053.13
2019-04-26T11:35:33.270Z,96049.25
2019-04-26T11:38:26.848Z,96044.61
2019-04-26T11:41:08.133Z,96053.15
2019-04-26T11:43:57.882Z,96059.43
2019-04-26T11:46:44.975Z,96071.52
2019-04-26T11:49:31.951Z,96074.16
2019-04-26T11:52:14.041Z,96077.56
2019-04-26T11:55:04.049Z,96085.78
2019-04-26T11:57:50.281Z,96096.01
2019-04-26T12:04:07.129Z,96118.17
2019-04-26T12:07:14.752Z,96114.09
2019-04-26T12:10:00.515Z,96112.20
2019-04-26T12:12:51.805Z,96103.08
2019-04-26T12:15:34.297Z,96127.56
2019-04-26T12:18:24.099Z,96111.20
2019-04-26T12:21:06.911Z,96123.55
2019-04-26T12:23:56.717Z,96130.88
2019-04-26T12:26:42.969Z,96121.47
2019-04-26T12:29:30.469Z,96125.68
2019-04-26T12:32:17.186Z,96122.16
2019-04-26T12:35:06.271Z,96098.94
2019-04-26T12:37:50.680Z,96119.60
2019-04-26T12:40:42.324Z,96124.86
2019-04-26T12:43:26.154Z,96127.25
2019-04-26T12:49:28.167Z,96135.73
2019-04-26T12:52:21.667Z,96125.56
2019-04-26T12:55:02.580Z,96134.16
2019-04-26T13:01:00.572Z,96142.08
2019-04-26T13:04:09.104Z,96135.95
2019-04-26T13:10:19.364Z,96112.41
2019-04-26T13:13:20.526Z,96118.40
2019-04-26T13:16:26.289Z,96115.42
2019-04-26T13:19:08.431Z,96110.88
2019-04-26T13:21:58.195Z,96102.12
2019-04-26T13:24:47.995Z,96098.66
2019-04-26T13:27:41.565Z,96093.48
2019-04-26T13:30:32.688Z,96086.95
2019-04-26T13:33:15.340Z,96081.44
2019-04-26T13:36:05.399Z,96081.25
2019-04-26T13:38:49.713Z,96071.72
2019-04-26T13:41:40.253Z,96072.24
2019-04-26T13:44:42.749Z,96071.09
2019-04-26T13:47:45.624Z,96070.16
2019-04-26T13:50:35.581Z,96074.72
2019-04-26T13:53:25.808Z,96065.01
2019-04-26T13:56:09.793Z,96062.91
2019-04-26T14:02:11.320Z,96070.75
2019-04-26T14:04:46.866Z,96081.13
2019-04-26T14:07:36.645Z,96065.70
2019-04-26T14:10:19.490Z,96096.88
2019-04-26T14:13:09.345Z,96106.32
2019-04-26T14:15:59.142Z,96101.28
2019-04-26T14:18:48.986Z,96096.03
2019-04-26T14:21:38.858Z,96095.25
2019-04-26T14:24:47.451Z,96095.97
2019-04-26T14:27:45.361Z,96087.64
2019-04-26T14:30:28.008Z,96084.53
2019-04-26T14:33:17.750Z,96077.00
2019-04-26T14:36:00.677Z,96078.94
2019-04-26T14:38:50.450Z,96071.73
2019-04-26T14:41:40.318Z,96081.30
2019-04-26T14:47:29.947Z,96072.16
2019-04-26T14:50:18.622Z,96096.67
2019-04-26T14:53:02.363Z,96092.42
2019-04-26T14:55:54.633Z,96091.62
2019-04-26T14:58:36.782Z,96087.14
2019-04-26T15:04:42.268Z,96078.59
2019-04-26T15:07:34.233Z,96071.19
2019-04-26T15:13:23.565Z,96043.11
2019-04-26T15:16:14.278Z,96068.97
2019-04-26T15:18:59.349Z,96069.95
2019-04-26T15:21:49.104Z,96076.13
2019-04-26T15:24:35.015Z,96077.63
2019-04-26T15:27:22.734Z,96064.02
2019-04-26T15:30:05.003Z,96079.76
2019-04-26T15:32:54.813Z,96073.73
2019-04-26T15:35:36.661Z,96081.00
2019-04-26T15:38:26.364Z,96067.11
2019-04-26T15:41:27.556Z,96080.72
2019-04-26T15:44:36.081Z,96077.41
2019-04-26T15:47:40.121Z,96077.70
2019-04-26T15:50:52.054Z,96058.83
2019-04-26T15:53:33.158Z,96080.09
2019-04-26T15:56:23.091Z,96079.92
2019-04-26T15:59:06.143Z,96069.39
2019-04-26T16:01:56.422Z,96071.94
2019-04-26T16:04:39.541Z,96080.33
2019-04-26T16:07:29.318Z,96082.08
2019-04-26T16:10:12.175Z,96081.48
2019-04-26T16:13:16.226Z,96092.21
2019-04-26T16:15:48.890Z,96086.55
2019-04-26T16:18:39.570Z,96079.94
2019-04-26T16:21:29.304Z,96093.77
2019-04-26T16:24:12.908Z,96098.65
2019-04-26T16:27:02.857Z,96079.35
2019-04-26T16:30:04.545Z,96101.95
2019-04-26T16:35:49.546Z,96095.69
2019-04-26T16:38:39.375Z,96088.86
2019-04-26T16:41:43.106Z,96093.73
2019-04-26T16:44:29.966Z,96089.24
2019-04-26T16:47:17.163Z,96092.59
2019-04-26T16:50:02.058Z,96094.94
2019-04-26T16:52:50.685Z,96093.75
2019-04-26T16:58:31.034Z,96071.58
2019-04-26T17:00:45.481Z,96100.00
2019-04-26T17:01:11.622Z,96097.28
2019-04-26T17:04:04.673Z,96075.27
2019-04-26T17:06:46.501Z,96095.32
2019-04-26T17:09:55.831Z,96080.92
2019-04-26T17:12:22.634Z,96086.37
2019-04-26T17:15:13.329Z,96086.92
2019-04-26T17:18:03.272Z,96092.40
2019-04-26T17:20:53.198Z,96092.17
2019-04-26T17:24:00.736Z,96089.67
2019-04-26T17:26:49.606Z,96091.03
2019-04-26T17:29:38.798Z,96088.51
2019-04-26T17:32:25.701Z,96093.38
2019-04-26T17:35:08.931Z,96105.61
2019-04-26T17:37:51.852Z,96105.78
2019-04-26T17:40:41.622Z,96103.77
2019-04-26T17:43:31.364Z,96102.67
2019-04-26T17:46:21.625Z,96098.95
2019-04-26T17:49:10.990Z,96082.36
2019-04-26T17:52:01.976Z,96104.80
2019-04-26T17:54:49.548Z,96109.47
2019-04-26T17:57:43.490Z,96088.81
2019-04-26T18:00:26.995Z,96090.56
2019-04-26T18:03:17.552Z,96107.55
2019-04-26T18:06:01.074Z,96108.89
2019-04-26T18:08:54.538Z,96106.33
2019-04-26T18:11:34.898Z,96104.66
2019-04-26T18:14:29.652Z,96111.25
2019-04-26T18:17:27.915Z,96115.70
2019-04-26T18:23:31.779Z,96115.22
2019-04-26T18:26:22.532Z,96112.77
2019-04-26T18:29:05.452Z,96118.16
2019-04-26T18:37:18.278Z,96122.75
2019-04-26T18:43:24.273Z,96133.71
2019-04-26T18:49:18.274Z,96140.66
2019-04-26T18:52:08.803Z,96154.23
2019-04-26T18:54:54.996Z,96159.06
2019-04-26T18:57:47.312Z,96164.23
2019-04-26T19:03:38.604Z,96171.66
2019-04-26T19:06:29.734Z,96174.81
2019-04-26T19:12:12.934Z,96179.55
2019-04-26T19:15:21.938Z,96184.33
2019-04-26T19:18:22.908Z,96190.03
2019-04-26T19:21:32.287Z,96189.80
2019-04-26T19:24:19.515Z,96195.06
2019-04-26T19:27:07.877Z,96197.72
2019-04-26T19:29:54.713Z,96174.04
2019-04-26T19:32:44.465Z,96183.69
2019-04-26T19:35:27.252Z,96197.72
2019-04-26T19:38:17.446Z,96198.92
2019-04-26T19:41:07.540Z,96200.73
2019-04-26T19:43:49.911Z,96199.38
2019-04-26T19:47:04.924Z,96182.10
2019-04-26T19:50:04.093Z,96195.66
2019-04-26T19:53:04.853Z,96203.77
2019-04-26T19:56:10.267Z,96205.87
2019-04-26T19:58:57.440Z,96208.88
2019-04-26T20:04:30.634Z,96196.16
2019-04-26T20:07:19.627Z,96206.20
2019-04-26T20:10:04.904Z,96219.05
2019-04-26T20:12:53.203Z,96215.73
2019-04-26T20:15:35.418Z,96215.81
2019-04-26T20:18:25.155Z,96197.33
2019-04-26T20:21:12.693Z,96208.92
2019-04-26T20:23:58.997Z,96197.14
2019-04-26T20:26:44.699Z,96210.30
2019-04-26T20:29:27.487Z,96192.31
2019-04-26T20:32:36.921Z,96205.23
2019-04-26T20:35:28.379Z,96218.02
2019-04-26T20:38:12.734Z,96217.84
2019-04-26T20:41:03.089Z,96218.09
2019-04-26T20:43:36.282Z,96217.78
2019-04-26T20:48:53.065Z,96216.61
2019-04-26T20:51:46.318Z,96220.73
2019-04-26T20:54:28.798Z,96214.37
2019-04-26T20:57:18.528Z,96211.00
2019-04-26T21:00:03.346Z,96214.50
2019-04-26T21:02:54.058Z,96207.26
2019-04-26T21:05:45.702Z,96223.16
2019-04-26T21:08:28.165Z,96225.55
2019-04-26T21:11:11.172Z,96226.09
2019-04-26T21:14:07.442Z,96224.98
2019-04-26T21:16:49.384Z,96206.34
2019-04-26T21:19:37.946Z,96226.84
2019-04-26T21:22:25.486Z,96234.28
2019-04-26T21:31:50.444Z,96222.94
2019-04-26T21:34:36.342Z,96223.30
2019-04-26T21:41:01.617Z,96240.29
2019-04-26T21:43:47.913Z,96243.37
2019-04-26T21:46:33.515Z,96220.72
2019-04-26T21:52:29.466Z,96242.62
2019-04-26T21:55:19.450Z,96239.95
2019-04-26T21:58:05.206Z,96239.65
2019-04-26T22:01:20.978Z,96234.38
2019-04-26T22:04:04.997Z,96238.44
2019-04-26T22:06:55.642Z,96240.66
2019-04-26T22:12:55.138Z,96250.07
2019-04-26T22:16:03.474Z,96250.64
2019-04-26T22:19:07.581Z,96250.78
2019-04-26T22:22:17.172Z,96255.00
2019-04-26T22:25:09.988Z,96249.09
2019-04-26T22:28:13.779Z,96250.94
2019-04-26T22:30:44.532Z,96251.50
2019-04-26T22:33:34.601Z,96255.94
2019-04-26T22:36:16.972Z,96250.48
2019-04-26T22:42:23.925Z,96245.26
2019-04-26T22:45:33.566Z,96245.78
2019-04-26T22:48:44.166Z,96252.28
2019-04-26T22:57:03.780Z,96244.52
2019-04-26T23:00:14.922Z,96229.03
2019-04-26T23:02:58.098Z,96251.52
2019-04-26T23:05:48.903Z,96260.34
2019-04-26T23:08:35.251Z,96261.70
2019-04-26T23:11:25.291Z,96266.12
2019-04-26T23:14:33.884Z,96261.78
2019-04-26T23:17:43.949Z,96243.56
2019-04-26T23:20:43.505Z,96262.72
2019-04-26T23:23:37.080Z,96242.46
2019-04-26T23:26:18.840Z,96247.45
2019-04-26T23:29:15.676Z,96277.15
2019-04-26T23:31:53.445Z,96270.05
2019-04-26T23:35:06.044Z,96272.02
2019-04-26T23:37:48.543Z,96271.97
2019-04-26T23:40:38.678Z,96276.66
2019-04-26T23:43:25.444Z,96274.23
2019-04-26T23:46:14.627Z,96279.22
2019-04-26T23:48:57.305Z,96259.63
2019-04-26T23:51:47.070Z,96264.34
2019-04-26T23:54:36.778Z,96263.97
2019-04-26T23:57:27.385Z,96282.91
